sensor_id;sensor_type;location;lat;lon;timestamp;temperature;humidity
31619;DHT22;18230;51.502;7.108;2024-01-27T00:01:53;5.40;99.90
31619;DHT22;18230;51.502;7.108;2024-01-27T00:06:54;5.30;99.90
31619;DHT22;18230;51.502;7.108;2024-01-27T00:11:54;5.30;99.90
31619;DHT22;18230;51.502;7.108;2024-01-27T00:16:55;5.30;99.90
31619;DHT22;18230;51.502;7.108;2024-01-27T00:21:56;5.30;99.90
31619;DHT22;18230;51.502;7.108;2024-01-27T00:26:56;5.30;99.90
31619;DHT22;18230;51.502;7.108;2024-01-27T00:31:57;5.20;99.90
31619;DHT22;18230;51.502;7.108;2024-01-27T00:36:57;5.20;99.90
31619;DHT22;18230;51.502;7.108;2024-01-27T00:41:58;5.20;99.90
31619;DHT22;18230;51.502;7.108;2024-01-27T00:46:59;5.10;99.90
31619;DHT22;18230;51.502;7.108;2024-01-27T00:52:00;5.10;99.90
31619;DHT22;18230;51.502;7.108;2024-01-27T00:57:00;5.10;99.90
31619;DHT22;18230;51.502;7.108;2024-01-27T01:02:01;5.10;99.90
31619;DHT22;18230;51.502;7.108;2024-01-27T01:07:02;5.00;99.90
31619;DHT22;18230;51.502;7.108;2024-01-27T01:12:03;5.00;99.90
31619;DHT22;18230;51.502;7.108;2024-01-27T01:17:04;5.00;99.90
31619;DHT22;18230;51.502;7.108;2024-01-27T01:22:05;5.00;99.90
31619;DHT22;18230;51.502;7.108;2024-01-27T01:27:06;4.90;99.90
31619;DHT22;18230;51.502;7.108;2024-01-27T01:32:06;4.90;99.90
31619;DHT22;18230;51.502;7.108;2024-01-27T01:37:07;4.90;99.90
31619;DHT22;18230;51.502;7.108;2024-01-27T01:42:07;4.80;99.90
31619;DHT22;18230;51.502;7.108;2024-01-27T01:47:08;4.80;99.90
31619;DHT22;18230;51.502;7.108;2024-01-27T01:52:09;4.90;99.90
31619;DHT22;18230;51.502;7.108;2024-01-27T01:57:10;4.80;99.90
31619;DHT22;18230;51.502;7.108;2024-01-27T02:02:12;4.80;99.90
31619;DHT22;18230;51.502;7.108;2024-01-27T02:07:13;4.80;99.90
31619;DHT22;18230;51.502;7.108;2024-01-27T02:12:14;4.80;99.90
31619;DHT22;18230;51.502;7.108;2024-01-27T02:17:14;4.80;99.90
31619;DHT22;18230;51.502;7.108;2024-01-27T02:22:15;4.70;99.90
31619;DHT22;18230;51.502;7.108;2024-01-27T02:27:16;4.80;99.90
31619;DHT22;18230;51.502;7.108;2024-01-27T02:32:16;4.70;99.90
31619;DHT22;18230;51.502;7.108;2024-01-27T02:37:18;4.70;99.90
31619;DHT22;18230;51.502;7.108;2024-01-27T02:42:18;4.70;99.90
31619;DHT22;18230;51.502;7.108;2024-01-27T02:47:19;4.60;99.90
31619;DHT22;18230;51.502;7.108;2024-01-27T02:52:20;4.70;99.90
31619;DHT22;18230;51.502;7.108;2024-01-27T02:57:20;4.70;99.90
31619;DHT22;18230;51.502;7.108;2024-01-27T03:02:21;4.70;99.90
31619;DHT22;18230;51.502;7.108;2024-01-27T03:07:21;4.70;99.90
31619;DHT22;18230;51.502;7.108;2024-01-27T03:12:22;4.80;99.90
31619;DHT22;18230;51.502;7.108;2024-01-27T03:17:23;4.60;99.90
31619;DHT22;18230;51.502;7.108;2024-01-27T03:22:24;4.60;99.90
31619;DHT22;18230;51.502;7.108;2024-01-27T03:27:24;4.50;99.90
31619;DHT22;18230;51.502;7.108;2024-01-27T03:32:25;4.70;99.90
31619;DHT22;18230;51.502;7.108;2024-01-27T03:37:26;4.50;99.90
31619;DHT22;18230;51.502;7.108;2024-01-27T03:42:27;4.50;99.90
31619;DHT22;18230;51.502;7.108;2024-01-27T03:47:27;4.50;99.90
31619;DHT22;18230;51.502;7.108;2024-01-27T03:52:28;4.40;99.90
31619;DHT22;18230;51.502;7.108;2024-01-27T03:57:28;4.40;99.90
31619;DHT22;18230;51.502;7.108;2024-01-27T04:02:29;4.40;99.90
31619;DHT22;18230;51.502;7.108;2024-01-27T04:07:30;4.30;99.90
31619;DHT22;18230;51.502;7.108;2024-01-27T04:12:30;4.30;99.90
31619;DHT22;18230;51.502;7.108;2024-01-27T04:17:31;4.20;99.90
31619;DHT22;18230;51.502;7.108;2024-01-27T04:22:32;4.40;99.90
31619;DHT22;18230;51.502;7.108;2024-01-27T04:27:37;4.20;99.90
31619;DHT22;18230;51.502;7.108;2024-01-27T04:32:39;4.20;99.90
31619;DHT22;18230;51.502;7.108;2024-01-27T04:37:39;4.20;99.90
31619;DHT22;18230;51.502;7.108;2024-01-27T04:42:40;4.10;99.90
31619;DHT22;18230;51.502;7.108;2024-01-27T04:47:41;4.20;99.90
31619;DHT22;18230;51.502;7.108;2024-01-27T04:52:41;4.20;99.90
31619;DHT22;18230;51.502;7.108;2024-01-27T04:57:42;4.10;99.90
31619;DHT22;18230;51.502;7.108;2024-01-27T05:02:43;4.10;99.90
31619;DHT22;18230;51.502;7.108;2024-01-27T05:07:44;4.10;99.90
31619;DHT22;18230;51.502;7.108;2024-01-27T05:12:44;4.10;99.90
31619;DHT22;18230;51.502;7.108;2024-01-27T05:17:45;4.10;99.90
31619;DHT22;18230;51.502;7.108;2024-01-27T05:22:46;4.10;99.90
31619;DHT22;18230;51.502;7.108;2024-01-27T05:27:47;4.10;99.90
31619;DHT22;18230;51.502;7.108;2024-01-27T05:32:47;4.00;99.90
31619;DHT22;18230;51.502;7.108;2024-01-27T05:37:48;4.10;99.90
31619;DHT22;18230;51.502;7.108;2024-01-27T05:42:48;4.10;99.90
31619;DHT22;18230;51.502;7.108;2024-01-27T05:47:50;4.10;99.90
31619;DHT22;18230;51.502;7.108;2024-01-27T05:52:51;4.00;99.90
31619;DHT22;18230;51.502;7.108;2024-01-27T05:57:51;4.00;99.90
31619;DHT22;18230;51.502;7.108;2024-01-27T06:02:52;4.00;99.90
31619;DHT22;18230;51.502;7.108;2024-01-27T06:07:53;4.00;99.90
31619;DHT22;18230;51.502;7.108;2024-01-27T06:12:53;3.90;99.90
31619;DHT22;18230;51.502;7.108;2024-01-27T06:17:54;3.90;99.90
31619;DHT22;18230;51.502;7.108;2024-01-27T06:22:54;3.90;99.90
31619;DHT22;18230;51.502;7.108;2024-01-27T06:27:55;3.80;99.90
31619;DHT22;18230;51.502;7.108;2024-01-27T06:32:56;3.80;99.90
31619;DHT22;18230;51.502;7.108;2024-01-27T06:37:56;3.90;99.90
31619;DHT22;18230;51.502;7.108;2024-01-27T06:42:57;4.00;99.90
31619;DHT22;18230;51.502;7.108;2024-01-27T06:47:57;3.90;99.90
31619;DHT22;18230;51.502;7.108;2024-01-27T06:52:58;3.80;99.90
31619;DHT22;18230;51.502;7.108;2024-01-27T06:57:59;3.80;99.90
31619;DHT22;18230;51.502;7.108;2024-01-27T07:03:00;3.80;99.90
31619;DHT22;18230;51.502;7.108;2024-01-27T07:08:00;3.80;99.90
31619;DHT22;18230;51.502;7.108;2024-01-27T07:13:02;3.80;99.90
31619;DHT22;18230;51.502;7.108;2024-01-27T07:18:03;3.80;99.90
31619;DHT22;18230;51.502;7.108;2024-01-27T07:23:05;3.80;99.90
31619;DHT22;18230;51.502;7.108;2024-01-27T07:28:05;3.80;99.90
31619;DHT22;18230;51.502;7.108;2024-01-27T07:33:06;3.90;99.90
31619;DHT22;18230;51.502;7.108;2024-01-27T07:38:06;3.90;99.90
31619;DHT22;18230;51.502;7.108;2024-01-27T07:43:08;3.90;99.90
31619;DHT22;18230;51.502;7.108;2024-01-27T07:48:09;4.00;99.90
31619;DHT22;18230;51.502;7.108;2024-01-27T07:53:10;4.10;99.90
31619;DHT22;18230;51.502;7.108;2024-01-27T07:58:10;4.10;99.90
31619;DHT22;18230;51.502;7.108;2024-01-27T08:03:11;4.10;99.90
31619;DHT22;18230;51.502;7.108;2024-01-27T08:08:11;4.20;99.90
31619;DHT22;18230;51.502;7.108;2024-01-27T08:13:12;4.30;99.90
31619;DHT22;18230;51.502;7.108;2024-01-27T08:18:13;4.50;99.90
31619;DHT22;18230;51.502;7.108;2024-01-27T08:23:13;4.40;99.90
31619;DHT22;18230;51.502;7.108;2024-01-27T08:28:14;4.50;99.90
31619;DHT22;18230;51.502;7.108;2024-01-27T08:33:14;4.60;99.90
31619;DHT22;18230;51.502;7.108;2024-01-27T08:38:15;4.90;99.90
31619;DHT22;18230;51.502;7.108;2024-01-27T08:43:16;4.90;99.90
31619;DHT22;18230;51.502;7.108;2024-01-27T08:48:16;5.10;99.90
31619;DHT22;18230;51.502;7.108;2024-01-27T08:53:17;5.20;99.90
31619;DHT22;18230;51.502;7.108;2024-01-27T08:58:17;5.30;99.90
31619;DHT22;18230;51.502;7.108;2024-01-27T09:03:19;5.40;99.90
31619;DHT22;18230;51.502;7.108;2024-01-27T09:08:20;5.50;99.90
31619;DHT22;18230;51.502;7.108;2024-01-27T09:13:21;5.70;99.90
31619;DHT22;18230;51.502;7.108;2024-01-27T09:18:22;5.80;99.90
31619;DHT22;18230;51.502;7.108;2024-01-27T09:23:22;5.90;99.90
31619;DHT22;18230;51.502;7.108;2024-01-27T09:28:23;5.90;99.90
31619;DHT22;18230;51.502;7.108;2024-01-27T09:33:24;6.00;99.90
31619;DHT22;18230;51.502;7.108;2024-01-27T09:38:24;6.10;99.90
31619;DHT22;18230;51.502;7.108;2024-01-27T09:43:26;6.30;99.90
31619;DHT22;18230;51.502;7.108;2024-01-27T09:48:29;6.40;99.90
31619;DHT22;18230;51.502;7.108;2024-01-27T09:53:30;6.60;99.90
31619;DHT22;18230;51.502;7.108;2024-01-27T09:58:31;6.80;99.90
31619;DHT22;18230;51.502;7.108;2024-01-27T10:03:32;6.90;99.90
31619;DHT22;18230;51.502;7.108;2024-01-27T10:08:35;6.90;99.90
31619;DHT22;18230;51.502;7.108;2024-01-27T10:13:36;7.10;99.90
31619;DHT22;18230;51.502;7.108;2024-01-27T10:18:36;7.20;99.90
31619;DHT22;18230;51.502;7.108;2024-01-27T10:23:40;7.40;99.90
31619;DHT22;18230;51.502;7.108;2024-01-27T10:28:41;7.50;99.90
31619;DHT22;18230;51.502;7.108;2024-01-27T10:33:52;7.60;99.90
31619;DHT22;18230;51.502;7.108;2024-01-27T10:38:54;7.60;99.90
31619;DHT22;18230;51.502;7.108;2024-01-27T10:43:56;7.60;99.90
31619;DHT22;18230;51.502;7.108;2024-01-27T10:48:59;7.50;99.90
31619;DHT22;18230;51.502;7.108;2024-01-27T10:54:02;7.60;99.90
31619;DHT22;18230;51.502;7.108;2024-01-27T10:59:04;7.70;99.90
31619;DHT22;18230;51.502;7.108;2024-01-27T11:04:06;7.80;99.90
31619;DHT22;18230;51.502;7.108;2024-01-27T11:09:10;8.00;99.90
31619;DHT22;18230;51.502;7.108;2024-01-27T11:14:12;8.00;99.90
31619;DHT22;18230;51.502;7.108;2024-01-27T11:19:13;8.00;99.90
31619;DHT22;18230;51.502;7.108;2024-01-27T11:24:17;8.10;99.90
31619;DHT22;18230;51.502;7.108;2024-01-27T11:29:18;8.10;99.90
31619;DHT22;18230;51.502;7.108;2024-01-27T11:34:20;8.10;99.90
31619;DHT22;18230;51.502;7.108;2024-01-27T11:39:24;8.20;99.90
31619;DHT22;18230;51.502;7.108;2024-01-27T11:44:26;8.30;99.90
31619;DHT22;18230;51.502;7.108;2024-01-27T11:49:27;8.40;99.90
31619;DHT22;18230;51.502;7.108;2024-01-27T11:54:28;8.30;99.90
31619;DHT22;18230;51.502;7.108;2024-01-27T11:59:28;8.40;99.90
31619;DHT22;18230;51.502;7.108;2024-01-27T12:04:29;8.40;99.90
31619;DHT22;18230;51.502;7.108;2024-01-27T12:09:30;8.40;99.90
31619;DHT22;18230;51.502;7.108;2024-01-27T12:14:40;8.50;99.90
31619;DHT22;18230;51.502;7.108;2024-01-27T12:19:49;8.50;99.90
31619;DHT22;18230;51.502;7.108;2024-01-27T12:24:50;8.40;99.90
31619;DHT22;18230;51.502;7.108;2024-01-27T12:29:51;8.70;99.90
31619;DHT22;18230;51.502;7.108;2024-01-27T12:34:51;8.70;99.90
31619;DHT22;18230;51.502;7.108;2024-01-27T12:39:52;8.60;99.90
31619;DHT22;18230;51.502;7.108;2024-01-27T12:44:52;8.60;99.90
31619;DHT22;18230;51.502;7.108;2024-01-27T12:49:53;8.60;99.90
31619;DHT22;18230;51.502;7.108;2024-01-27T12:54:55;8.70;99.90
31619;DHT22;18230;51.502;7.108;2024-01-27T12:59:55;8.80;99.90
31619;DHT22;18230;51.502;7.108;2024-01-27T13:04:56;8.90;99.90
31619;DHT22;18230;51.502;7.108;2024-01-27T13:09:57;8.80;99.90
31619;DHT22;18230;51.502;7.108;2024-01-27T13:14:57;8.80;99.90
31619;DHT22;18230;51.502;7.108;2024-01-27T13:19:58;8.80;99.90
31619;DHT22;18230;51.502;7.108;2024-01-27T13:24:59;8.80;99.90
31619;DHT22;18230;51.502;7.108;2024-01-27T13:30:05;9.00;99.90
31619;DHT22;18230;51.502;7.108;2024-01-27T13:35:07;9.00;99.90
31619;DHT22;18230;51.502;7.108;2024-01-27T13:40:08;8.90;99.90
31619;DHT22;18230;51.502;7.108;2024-01-27T13:45:10;8.90;99.90
31619;DHT22;18230;51.502;7.108;2024-01-27T13:50:11;8.90;99.90
31619;DHT22;18230;51.502;7.108;2024-01-27T13:55:12;8.90;99.90
31619;DHT22;18230;51.502;7.108;2024-01-27T14:00:13;9.00;99.90
31619;DHT22;18230;51.502;7.108;2024-01-27T14:05:14;9.00;99.90
31619;DHT22;18230;51.502;7.108;2024-01-27T14:10:15;9.00;99.90
31619;DHT22;18230;51.502;7.108;2024-01-27T14:15:15;9.00;99.90
31619;DHT22;18230;51.502;7.108;2024-01-27T14:20:18;9.00;99.90
31619;DHT22;18230;51.502;7.108;2024-01-27T14:25:18;8.90;99.90
31619;DHT22;18230;51.502;7.108;2024-01-27T14:30:19;8.90;99.90
31619;DHT22;18230;51.502;7.108;2024-01-27T14:35:20;8.90;99.90
31619;DHT22;18230;51.502;7.108;2024-01-27T14:40:21;8.90;99.90
31619;DHT22;18230;51.502;7.108;2024-01-27T14:45:22;8.80;99.90
31619;DHT22;18230;51.502;7.108;2024-01-27T14:50:23;8.80;99.90
31619;DHT22;18230;51.502;7.108;2024-01-27T14:55:24;8.90;99.90
31619;DHT22;18230;51.502;7.108;2024-01-27T15:00:26;8.90;99.90
31619;DHT22;18230;51.502;7.108;2024-01-27T15:05:27;8.90;99.90
31619;DHT22;18230;51.502;7.108;2024-01-27T15:10:28;9.00;99.90
31619;DHT22;18230;51.502;7.108;2024-01-27T15:15:28;9.00;99.90
31619;DHT22;18230;51.502;7.108;2024-01-27T15:20:29;9.00;99.90
31619;DHT22;18230;51.502;7.108;2024-01-27T15:25:30;9.00;99.90
31619;DHT22;18230;51.502;7.108;2024-01-27T15:30:31;8.90;99.90
31619;DHT22;18230;51.502;7.108;2024-01-27T15:35:32;8.90;99.90
31619;DHT22;18230;51.502;7.108;2024-01-27T15:40:33;8.70;99.90
31619;DHT22;18230;51.502;7.108;2024-01-27T15:45:33;8.70;99.90
31619;DHT22;18230;51.502;7.108;2024-01-27T15:50:34;8.60;99.90
31619;DHT22;18230;51.502;7.108;2024-01-27T15:55:35;8.50;99.90
31619;DHT22;18230;51.502;7.108;2024-01-27T16:00:36;8.40;99.90
31619;DHT22;18230;51.502;7.108;2024-01-27T16:05:36;8.40;99.90
31619;DHT22;18230;51.502;7.108;2024-01-27T16:10:37;8.20;99.90
31619;DHT22;18230;51.502;7.108;2024-01-27T16:15:38;8.30;99.90
31619;DHT22;18230;51.502;7.108;2024-01-27T16:20:40;8.10;99.90
31619;DHT22;18230;51.502;7.108;2024-01-27T16:25:40;8.10;99.90
31619;DHT22;18230;51.502;7.108;2024-01-27T16:30:41;8.00;99.90
31619;DHT22;18230;51.502;7.108;2024-01-27T16:35:42;8.00;99.90
31619;DHT22;18230;51.502;7.108;2024-01-27T16:40:42;7.80;99.90
31619;DHT22;18230;51.502;7.108;2024-01-27T16:45:45;7.80;99.90
31619;DHT22;18230;51.502;7.108;2024-01-27T16:50:46;7.80;99.90
31619;DHT22;18230;51.502;7.108;2024-01-27T16:55:47;7.60;99.90
31619;DHT22;18230;51.502;7.108;2024-01-27T17:00:47;7.50;99.90
31619;DHT22;18230;51.502;7.108;2024-01-27T17:05:48;7.50;99.90
31619;DHT22;18230;51.502;7.108;2024-01-27T17:10:49;7.50;99.90
31619;DHT22;18230;51.502;7.108;2024-01-27T17:15:50;7.30;99.90
31619;DHT22;18230;51.502;7.108;2024-01-27T17:20:52;7.20;99.90
31619;DHT22;18230;51.502;7.108;2024-01-27T17:25:54;7.10;99.90
31619;DHT22;18230;51.502;7.108;2024-01-27T17:30:54;7.00;99.90
31619;DHT22;18230;51.502;7.108;2024-01-27T17:35:55;7.00;99.90
31619;DHT22;18230;51.502;7.108;2024-01-27T17:40:56;6.90;99.90
31619;DHT22;18230;51.502;7.108;2024-01-27T17:45:56;6.80;99.90
31619;DHT22;18230;51.502;7.108;2024-01-27T17:50:57;6.70;99.90
31619;DHT22;18230;51.502;7.108;2024-01-27T17:55:58;6.60;99.90
31619;DHT22;18230;51.502;7.108;2024-01-27T18:01:00;6.50;99.90
31619;DHT22;18230;51.502;7.108;2024-01-27T18:06:01;6.50;99.90
31619;DHT22;18230;51.502;7.108;2024-01-27T18:11:02;6.50;99.90
31619;DHT22;18230;51.502;7.108;2024-01-27T18:16:02;6.40;99.90
31619;DHT22;18230;51.502;7.108;2024-01-27T18:21:04;6.30;99.90
31619;DHT22;18230;51.502;7.108;2024-01-27T18:26:05;6.10;99.90
31619;DHT22;18230;51.502;7.108;2024-01-27T18:31:06;6.10;99.90
31619;DHT22;18230;51.502;7.108;2024-01-27T18:36:07;6.10;99.90
31619;DHT22;18230;51.502;7.108;2024-01-27T18:41:07;6.00;99.90
31619;DHT22;18230;51.502;7.108;2024-01-27T18:46:08;5.90;99.90
31619;DHT22;18230;51.502;7.108;2024-01-27T18:51:09;5.70;99.90
31619;DHT22;18230;51.502;7.108;2024-01-27T18:56:09;5.70;99.90
31619;DHT22;18230;51.502;7.108;2024-01-27T19:01:10;5.60;99.90
31619;DHT22;18230;51.502;7.108;2024-01-27T19:06:12;5.50;99.90
31619;DHT22;18230;51.502;7.108;2024-01-27T19:11:15;5.30;99.90
31619;DHT22;18230;51.502;7.108;2024-01-27T19:16:15;5.20;99.90
31619;DHT22;18230;51.502;7.108;2024-01-27T19:21:16;5.10;99.90
31619;DHT22;18230;51.502;7.108;2024-01-27T19:26:17;4.90;99.90
31619;DHT22;18230;51.502;7.108;2024-01-27T19:31:18;4.90;99.90
31619;DHT22;18230;51.502;7.108;2024-01-27T19:36:18;4.90;99.90
31619;DHT22;18230;51.502;7.108;2024-01-27T19:41:19;4.80;99.90
31619;DHT22;18230;51.502;7.108;2024-01-27T19:46:20;4.80;99.90
31619;DHT22;18230;51.502;7.108;2024-01-27T19:51:20;4.70;99.90
31619;DHT22;18230;51.502;7.108;2024-01-27T19:56:21;4.70;99.90
31619;DHT22;18230;51.502;7.108;2024-01-27T20:01:22;4.90;99.90
31619;DHT22;18230;51.502;7.108;2024-01-27T20:06:22;4.70;99.90
31619;DHT22;18230;51.502;7.108;2024-01-27T20:11:23;4.60;99.90
31619;DHT22;18230;51.502;7.108;2024-01-27T20:16:24;4.60;99.90
31619;DHT22;18230;51.502;7.108;2024-01-27T20:21:25;4.70;99.90
31619;DHT22;18230;51.502;7.108;2024-01-27T20:26:26;4.70;99.90
31619;DHT22;18230;51.502;7.108;2024-01-27T20:31:26;4.60;99.90
31619;DHT22;18230;51.502;7.108;2024-01-27T20:36:30;4.60;99.90
31619;DHT22;18230;51.502;7.108;2024-01-27T20:41:30;4.50;99.90
31619;DHT22;18230;51.502;7.108;2024-01-27T20:46:31;4.40;99.90
31619;DHT22;18230;51.502;7.108;2024-01-27T20:51:31;4.40;99.90
31619;DHT22;18230;51.502;7.108;2024-01-27T20:56:32;4.30;99.90
31619;DHT22;18230;51.502;7.108;2024-01-27T21:01:34;4.30;99.90
31619;DHT22;18230;51.502;7.108;2024-01-27T21:06:38;4.40;99.90
31619;DHT22;18230;51.502;7.108;2024-01-27T21:11:39;4.20;99.90
31619;DHT22;18230;51.502;7.108;2024-01-27T21:16:39;4.30;99.90
31619;DHT22;18230;51.502;7.108;2024-01-27T21:21:40;4.30;99.90
31619;DHT22;18230;51.502;7.108;2024-01-27T21:26:41;4.20;99.90
31619;DHT22;18230;51.502;7.108;2024-01-27T21:31:42;4.20;99.90
31619;DHT22;18230;51.502;7.108;2024-01-27T21:36:42;4.20;99.90
31619;DHT22;18230;51.502;7.108;2024-01-27T21:41:43;4.20;99.90
31619;DHT22;18230;51.502;7.108;2024-01-27T21:46:43;4.10;99.90
31619;DHT22;18230;51.502;7.108;2024-01-27T21:51:50;3.90;99.90
31619;DHT22;18230;51.502;7.108;2024-01-27T21:56:51;4.10;99.90
31619;DHT22;18230;51.502;7.108;2024-01-27T22:01:51;3.90;99.90
31619;DHT22;18230;51.502;7.108;2024-01-27T22:06:52;3.80;99.90
31619;DHT22;18230;51.502;7.108;2024-01-27T22:11:52;3.80;99.90
31619;DHT22;18230;51.502;7.108;2024-01-27T22:16:53;3.80;99.90
31619;DHT22;18230;51.502;7.108;2024-01-27T22:21:53;3.90;99.90
31619;DHT22;18230;51.502;7.108;2024-01-27T22:26:54;3.90;99.90
31619;DHT22;18230;51.502;7.108;2024-01-27T22:31:55;4.00;99.90
31619;DHT22;18230;51.502;7.108;2024-01-27T22:36:55;3.90;99.90
31619;DHT22;18230;51.502;7.108;2024-01-27T22:41:56;3.80;99.90
31619;DHT22;18230;51.502;7.108;2024-01-27T22:46:57;3.70;99.90
31619;DHT22;18230;51.502;7.108;2024-01-27T22:51:58;3.70;99.90
31619;DHT22;18230;51.502;7.108;2024-01-27T22:57:01;3.70;99.90
31619;DHT22;18230;51.502;7.108;2024-01-27T23:02:02;3.60;99.90
31619;DHT22;18230;51.502;7.108;2024-01-27T23:07:03;3.70;99.90
31619;DHT22;18230;51.502;7.108;2024-01-27T23:12:04;3.70;99.90
31619;DHT22;18230;51.502;7.108;2024-01-27T23:17:05;3.70;99.90
31619;DHT22;18230;51.502;7.108;2024-01-27T23:22:05;3.70;99.90
31619;DHT22;18230;51.502;7.108;2024-01-27T23:27:06;3.70;99.90
31619;DHT22;18230;51.502;7.108;2024-01-27T23:32:08;3.70;99.90
31619;DHT22;18230;51.502;7.108;2024-01-27T23:37:09;3.70;99.90
31619;DHT22;18230;51.502;7.108;2024-01-27T23:42:10;3.60;99.90
31619;DHT22;18230;51.502;7.108;2024-01-27T23:47:10;3.60;99.90
31619;DHT22;18230;51.502;7.108;2024-01-27T23:52:11;3.50;99.90
31619;DHT22;18230;51.502;7.108;2024-01-27T23:57:12;3.70;99.90
